Time;durP1;ratioP1;P1;durP2;ratioP2;P2;SDS_P1;SDS_P2;PMS_P1;PMS_P2;Temp;Humidity;BMP_temperature;BMP_pressure;BME280_temperature;BME280_humidity;BME280_pressure;Samples;Min_cycle;Max_cycle;Signal;HPM_P1;HPM_P2
2023/09/23 00:01:27;;;;;;;9.97;9.67;;;12.40;99.90;;;;;;6257423;22;20233;-80
2023/09/23 00:03:54;;;;;;;9.80;9.50;;;12.40;99.90;;;;;;6259181;22;20201;-79
2023/09/23 00:06:22;;;;;;;10.10;9.80;;;12.50;99.90;;;;;;6259024;22;20201;-80
2023/09/23 00:08:49;;;;;;;10.07;9.77;;;12.50;99.90;;;;;;6257310;22;20237;-80
2023/09/23 00:11:16;;;;;;;10.00;9.70;;;12.50;99.90;;;;;;6257510;22;20205;-80
2023/09/23 00:13:43;;;;;;;9.90;9.60;;;12.60;99.90;;;;;;6258576;22;20186;-80
2023/09/23 00:16:15;;;;;;;10.10;9.80;;;12.60;99.90;;;;;;6259476;22;20190;-80
2023/09/23 00:18:43;;;;;;;10.07;9.77;;;12.50;99.90;;;;;;6259164;22;20264;-80
2023/09/23 00:21:11;;;;;;;10.00;9.70;;;12.50;99.90;;;;;;6259635;22;20199;-80
2023/09/23 00:23:39;;;;;;;10.10;9.80;;;12.50;99.90;;;;;;6259870;22;20198;-79
2023/09/23 00:26:07;;;;;;;9.77;9.47;;;12.50;99.90;;;;;;6259476;22;20217;-80
2023/09/23 00:28:34;;;;;;;10.00;9.70;;;12.50;99.90;;;;;;6260027;22;20210;-80
2023/09/23 00:31:09;;;;;;;10.10;9.80;;;12.50;99.90;;;;;;6267962;22;20251;-79
2023/09/23 00:33:39;;;;;;;9.80;9.50;;;12.50;99.90;;;;;;6268090;22;20217;-79
2023/09/23 00:36:07;;;;;;;9.83;9.53;;;12.50;99.90;;;;;;6268146;22;20258;-79
2023/09/23 00:38:34;;;;;;;9.90;9.60;;;12.50;99.90;;;;;;6269720;22;20250;-79
2023/09/23 00:41:03;;;;;;;9.90;9.60;;;12.50;99.90;;;;;;6262928;22;20225;-80
2023/09/23 00:43:32;;;;;;;10.03;9.73;;;12.40;99.90;;;;;;6259845;22;20196;-79
2023/09/23 00:46:01;;;;;;;9.90;9.60;;;12.40;99.90;;;;;;6261285;22;20194;-80
2023/09/23 00:48:31;;;;;;;10.13;9.83;;;12.40;99.90;;;;;;6260479;22;20233;-80
2023/09/23 00:50:59;;;;;;;9.80;9.50;;;12.30;99.90;;;;;;6260216;22;20680;-80
2023/09/23 00:53:28;;;;;;;10.00;9.70;;;12.30;99.90;;;;;;6260842;22;20206;-80
2023/09/23 00:55:56;;;;;;;10.10;9.80;;;12.20;99.90;;;;;;6259744;22;20202;-79
2023/09/23 00:58:26;;;;;;;9.80;9.50;;;12.20;99.90;;;;;;6262213;22;20202;-80
2023/09/23 01:00:54;;;;;;;10.17;9.87;;;12.10;99.90;;;;;;6264073;22;20250;-80
2023/09/23 01:03:22;;;;;;;10.20;9.90;;;12.10;99.90;;;;;;6262759;22;20205;-79
2023/09/23 01:06:08;;;;;;;10.17;9.87;;;12.10;99.90;;;;;;6260362;22;20268;-80
2023/09/23 01:08:38;;;;;;;10.20;9.90;;;12.00;99.90;;;;;;6263328;22;20232;-79
2023/09/23 01:11:08;;;;;;;10.40;10.10;;;12.00;99.90;;;;;;6261768;22;20198;-80
2023/09/23 01:13:35;;;;;;;10.17;9.87;;;12.00;99.90;;;;;;6260282;22;20197;-80
2023/09/23 01:16:06;;;;;;;10.10;9.80;;;12.00;99.90;;;;;;6260307;22;20318;-80
2023/09/23 01:18:35;;;;;;;10.00;9.70;;;12.00;99.90;;;;;;6260357;22;20206;-79
2023/09/23 01:21:08;;;;;;;10.30;10.00;;;12.10;99.90;;;;;;6260204;22;20186;-80
2023/09/23 01:23:38;;;;;;;10.00;9.70;;;12.10;99.90;;;;;;6260439;22;20229;-80
2023/09/23 01:26:05;;;;;;;10.17;9.87;;;12.00;99.90;;;;;;6259909;22;20282;-79
2023/09/23 01:28:33;;;;;;;10.27;9.97;;;12.10;99.90;;;;;;6264503;22;20244;-80
2023/09/23 01:31:02;;;;;;;10.20;9.90;;;12.10;99.90;;;;;;6264188;22;20194;-80
2023/09/23 01:33:29;;;;;;;10.20;9.90;;;12.10;99.90;;;;;;6262892;22;20257;-80
2023/09/23 01:36:02;;;;;;;10.33;10.03;;;12.00;99.90;;;;;;6261846;22;20217;-80
2023/09/23 01:38:29;;;;;;;10.30;10.00;;;12.00;99.90;;;;;;6260024;22;20205;-80
2023/09/23 01:40:58;;;;;;;10.17;9.87;;;12.00;99.90;;;;;;6260089;22;20226;-80
2023/09/23 01:43:26;;;;;;;9.97;9.67;;;12.00;99.90;;;;;;6259520;22;20241;-80
2023/09/23 01:45:57;;;;;;;10.23;9.93;;;12.10;99.90;;;;;;6259053;22;20205;-80
2023/09/23 01:48:29;;;;;;;10.30;10.00;;;12.00;99.90;;;;;;6260305;22;20194;-79
2023/09/23 01:50:58;;;;;;;10.33;10.03;;;12.00;99.90;;;;;;6259747;22;20202;-81
2023/09/23 01:53:26;;;;;;;10.53;10.23;;;12.00;99.90;;;;;;6259455;22;20248;-80
2023/09/23 01:55:53;;;;;;;10.23;9.93;;;12.00;99.90;;;;;;6260142;22;20258;-80
2023/09/23 04:52:30;;;;;;;;;;;;;;;;;;;;;
2023/09/23 10:30:25;;;;;;;;;;;;;;;;;;;;;
2023/09/23 10:33:26;;;;;;;10.18;9.88;;;18.10;99.90;;;;;;5977966;23;20249;-86
2023/09/23 10:36:13;;;;;;;10.10;9.80;;;18.00;99.90;;;;;;6067634;23;20198;-83
2023/09/23 10:38:56;;;;;;;10.00;9.70;;;17.80;99.90;;;;;;6128626;23;20190;-86
2023/09/23 10:42:19;;;;;;;9.90;9.60;;;17.50;99.90;;;;;;6150462;23;20201;-85
2023/09/23 10:45:01;;;;;;;9.93;9.63;;;17.30;99.90;;;;;;6123422;23;20191;-85
2023/09/23 10:47:46;;;;;;;10.10;9.80;;;17.20;99.90;;;;;;6220006;23;20239;-85
2023/09/23 10:50:29;;;;;;;10.00;9.70;;;17.20;99.90;;;;;;6249058;22;20183;-89
2023/09/23 10:52:59;;;;;;;10.00;9.70;;;17.10;99.90;;;;;;6244640;22;20201;-85
2023/09/23 10:55:57;;;;;;;10.05;9.75;;;17.10;99.90;;;;;;6231469;23;20191;-86
2023/09/23 10:58:42;;;;;;;9.98;9.68;;;17.40;99.90;;;;;;6230711;22;20262;-86
2023/09/23 11:01:18;;;;;;;10.20;9.90;;;17.60;99.90;;;;;;6230715;23;20197;-85
2023/09/23 14:00:31;;;;;;;10.23;9.93;;;21.30;99.90;;;;;;6230657;22;20203;-81
2023/09/23 14:02:58;;;;;;;10.40;10.10;;;21.10;99.90;;;;;;6233229;23;20210;-81
2023/09/23 14:05:26;;;;;;;9.98;9.68;;;21.30;99.90;;;;;;6234267;23;20199;-81
2023/09/23 14:07:53;;;;;;;10.00;9.70;;;21.30;99.90;;;;;;6234842;23;20191;-81
2023/09/23 14:10:20;;;;;;;10.07;9.77;;;21.10;99.90;;;;;;6234447;22;20268;-81
2023/09/23 14:12:48;;;;;;;10.25;9.95;;;20.80;99.90;;;;;;6234738;23;20277;-81
2023/09/23 14:15:15;;;;;;;10.35;10.05;;;20.70;99.90;;;;;;6234612;23;20269;-81
2023/09/23 14:17:44;;;;;;;10.45;10.15;;;20.50;99.90;;;;;;6235133;23;20256;-81
2023/09/23 14:20:12;;;;;;;10.27;9.98;;;20.40;99.90;;;;;;6235489;22;20234;-81
2023/09/23 14:22:39;;;;;;;10.20;9.90;;;20.20;99.90;;;;;;6236170;23;20199;-81
2023/09/23 14:25:09;;;;;;;10.07;9.77;;;20.50;99.90;;;;;;6239209;23;20198;-80
2023/09/23 14:27:37;;;;;;;10.07;9.77;;;21.10;99.90;;;;;;6239705;23;20194;-81
2023/09/23 14:30:07;;;;;;;10.10;9.80;;;21.30;99.90;;;;;;6238649;22;20230;-81
2023/09/23 14:32:35;;;;;;;10.20;9.90;;;21.60;99.90;;;;;;6236342;23;20202;-81
2023/09/23 14:35:05;;;;;;;10.23;9.93;;;21.90;99.90;;;;;;6236715;23;20210;-81
2023/09/23 14:37:32;;;;;;;10.30;10.00;;;22.20;99.90;;;;;;6241978;23;20195;-81
2023/09/23 14:39:59;;;;;;;10.10;9.80;;;22.30;99.90;;;;;;6247691;22;20195;-81
2023/09/23 14:42:26;;;;;;;10.25;9.95;;;22.40;99.90;;;;;;6248403;22;20246;-81
2023/09/23 14:44:53;;;;;;;10.30;10.00;;;22.30;99.90;;;;;;6241199;23;20234;-81
2023/09/23 14:47:20;;;;;;;10.30;10.00;;;21.80;99.90;;;;;;6236310;23;20195;-81
2023/09/23 14:49:48;;;;;;;10.40;10.10;;;21.20;99.90;;;;;;6235936;22;20649;-81
2023/09/23 14:52:16;;;;;;;10.43;10.13;;;21.10;99.90;;;;;;6235634;23;20203;-81
2023/09/23 14:54:43;;;;;;;10.40;10.10;;;20.90;99.90;;;;;;6236145;23;20199;-81
2023/09/23 14:57:10;;;;;;;10.30;10.00;;;21.20;99.90;;;;;;6234480;23;20199;-80
2023/09/23 14:59:37;;;;;;;10.43;10.13;;;21.00;99.90;;;;;;6234609;22;20215;-81
2023/09/23 15:02:06;;;;;;;10.25;9.95;;;20.70;99.90;;;;;;6235972;23;20203;-81
2023/09/23 15:04:34;;;;;;;10.43;10.13;;;20.40;99.90;;;;;;6235250;23;20195;-81
2023/09/23 15:07:01;;;;;;;10.30;10.00;;;20.30;99.90;;;;;;6236249;23;20207;-81
2023/09/23 15:09:30;;;;;;;10.38;10.07;;;20.20;99.90;;;;;;6233989;22;20211;-81
2023/09/23 15:11:57;;;;;;;10.40;10.10;;;20.10;99.90;;;;;;6234845;23;20261;-81
2023/09/23 15:14:24;;;;;;;10.27;9.98;;;20.00;99.90;;;;;;6236195;23;20199;-81
2023/09/23 15:16:52;;;;;;;10.30;10.00;;;19.80;99.90;;;;;;6236430;23;20206;-82
2023/09/23 15:19:19;;;;;;;10.18;9.88;;;19.80;99.90;;;;;;6236287;22;20222;-81
2023/09/23 15:21:46;;;;;;;10.20;9.90;;;19.80;99.90;;;;;;6237450;23;20194;-81
2023/09/23 15:24:14;;;;;;;10.20;9.90;;;19.60;99.90;;;;;;6234469;23;20744;-81
2023/09/23 15:26:43;;;;;;;10.40;10.10;;;19.50;99.90;;;;;;6235210;23;20246;-81
2023/09/23 15:29:10;;;;;;;10.20;9.90;;;19.40;99.90;;;;;;6235555;22;20199;-82
2023/09/23 15:31:37;;;;;;;10.35;10.05;;;19.20;99.90;;;;;;6236351;23;20210;-81
2023/09/23 15:34:05;;;;;;;9.90;9.60;;;19.30;99.90;;;;;;6235090;23;20206;-81
2023/09/23 15:36:32;;;;;;;10.07;9.77;;;19.30;99.90;;;;;;6235356;23;20202;-82
2023/09/23 15:38:59;;;;;;;10.00;9.70;;;19.30;99.90;;;;;;6233912;22;20214;-81
2023/09/23 15:41:26;;;;;;;10.50;10.20;;;19.40;99.90;;;;;;6234622;23;20194;-81
2023/09/23 15:43:56;;;;;;;10.20;9.90;;;19.40;99.90;;;;;;6236239;23;20195;-82
2023/09/23 15:46:24;;;;;;;9.93;9.63;;;19.40;99.90;;;;;;6237487;23;20207;-81
2023/09/23 15:48:51;;;;;;;10.13;9.82;;;19.70;99.90;;;;;;6240308;22;20199;-80
2023/09/23 15:51:19;;;;;;;10.35;10.05;;;20.10;99.90;;;;;;6243996;23;20218;-82
2023/09/23 15:53:47;;;;;;;10.10;9.80;;;20.70;99.90;;;;;;6240793;23;20210;-79
2023/09/23 15:56:14;;;;;;;10.65;10.35;;;21.20;99.90;;;;;;6243183;23;20241;-80
2023/09/23 15:58:42;;;;;;;10.70;10.40;;;21.60;99.90;;;;;;6240240;22;20289;-79
2023/09/23 16:01:10;;;;;;;10.77;10.48;;;21.70;99.90;;;;;;6238510;23;20255;-80
2023/09/23 16:03:38;;;;;;;10.50;10.20;;;21.30;99.90;;;;;;6237435;23;20207;-81
2023/09/23 16:06:05;;;;;;;10.40;10.10;;;21.50;99.90;;;;;;6237080;23;20228;-80
2023/09/23 16:08:32;;;;;;;10.55;10.25;;;22.00;99.90;;;;;;6238246;22;20543;-80
2023/09/23 16:10:59;;;;;;;10.60;10.30;;;22.20;99.90;;;;;;6238433;23;20215;-80
2023/09/23 16:13:26;;;;;;;10.25;9.95;;;22.10;99.90;;;;;;6235916;23;20206;-81
2023/09/23 16:15:53;;;;;;;10.40;10.10;;;21.70;99.90;;;;;;6237703;23;20227;-80
2023/09/23 16:18:23;;;;;;;10.40;10.10;;;21.20;99.90;;;;;;6236661;22;20199;-81
2023/09/23 16:20:51;;;;;;;10.15;9.85;;;20.80;99.90;;;;;;6237393;23;20194;-80
2023/09/23 16:23:18;;;;;;;10.02;9.73;;;20.60;99.90;;;;;;6237872;23;20202;-80
2023/09/23 16:25:45;;;;;;;10.10;9.80;;;20.20;99.90;;;;;;6238134;23;20247;-81
2023/09/23 16:28:13;;;;;;;10.20;9.90;;;19.70;99.90;;;;;;6236610;23;20209;-81
2023/09/23 16:30:41;;;;;;;10.30;10.00;;;19.20;99.90;;;;;;6236430;23;20210;-81
2023/09/23 16:33:08;;;;;;;10.20;9.90;;;18.80;99.90;;;;;;6237480;23;20222;-80
2023/09/23 16:35:37;;;;;;;10.20;9.90;;;18.60;99.90;;;;;;6237310;23;20202;-81
2023/09/23 16:38:05;;;;;;;10.40;10.10;;;18.60;99.90;;;;;;6238876;23;20191;-81
2023/09/23 16:40:32;;;;;;;9.93;9.63;;;18.50;99.90;;;;;;6237173;22;20210;-80
2023/09/23 16:43:00;;;;;;;10.23;9.93;;;18.40;99.90;;;;;;6236528;23;20210;-81
2023/09/23 16:45:27;;;;;;;10.50;10.20;;;18.20;99.90;;;;;;6235700;23;20191;-80
2023/09/23 16:47:55;;;;;;;9.98;9.68;;;18.20;99.90;;;;;;6235626;23;20223;-81
2023/09/23 16:50:22;;;;;;;10.10;9.80;;;18.00;99.90;;;;;;6237991;22;20205;-82
2023/09/23 16:52:51;;;;;;;10.27;9.98;;;17.90;99.90;;;;;;6237463;23;20237;-82
2023/09/23 16:55:18;;;;;;;10.00;9.70;;;17.60;99.90;;;;;;6237688;23;20203;-81
2023/09/23 16:57:46;;;;;;;10.10;9.80;;;17.60;99.90;;;;;;6237765;23;20205;-82
2023/09/23 17:00:14;;;;;;;9.98;9.68;;;17.60;99.90;;;;;;6237412;22;20210;-82
2023/09/23 17:02:42;;;;;;;9.88;9.57;;;17.60;99.90;;;;;;6236570;23;20257;-82
2023/09/23 17:05:09;;;;;;;9.88;9.57;;;17.70;99.90;;;;;;6238977;23;20247;-82
2023/09/23 17:07:36;;;;;;;9.70;9.40;;;17.70;99.90;;;;;;6237532;23;20203;-82
2023/09/23 17:10:07;;;;;;;9.52;9.23;;;17.60;99.90;;;;;;6238483;22;20197;-81
2023/09/23 17:12:34;;;;;;;9.52;9.23;;;17.50;99.90;;;;;;6237959;23;20195;-82
2023/09/23 17:15:02;;;;;;;9.50;9.20;;;17.50;99.90;;;;;;6238421;23;20251;-81
2023/09/23 17:17:34;;;;;;;9.50;9.20;;;17.40;99.90;;;;;;6237372;23;20194;-81
2023/09/23 17:20:02;;;;;;;9.60;9.30;;;17.40;99.90;;;;;;6237086;22;20199;-82
2023/09/23 17:22:29;;;;;;;9.88;9.57;;;17.40;99.90;;;;;;6237766;23;20199;-81
2023/09/23 17:24:56;;;;;;;9.65;9.35;;;17.40;99.90;;;;;;6237777;23;20187;-82
2023/09/23 17:27:24;;;;;;;9.65;9.35;;;17.30;99.90;;;;;;6237259;23;20905;-83
2023/09/23 17:29:52;;;;;;;9.70;9.40;;;17.20;99.90;;;;;;6238363;23;20198;-81
2023/09/23 17:32:19;;;;;;;9.60;9.30;;;17.20;99.90;;;;;;6238726;23;20206;-83
2023/09/23 17:34:46;;;;;;;9.40;9.10;;;17.10;99.90;;;;;;6237157;23;20210;-81
2023/09/23 17:37:13;;;;;;;9.20;8.90;;;16.90;99.90;;;;;;6236858;23;20199;-82
2023/09/23 17:39:40;;;;;;;9.48;9.18;;;16.70;99.90;;;;;;6237775;22;20207;-82
2023/09/23 17:42:10;;;;;;;9.40;9.10;;;16.50;99.90;;;;;;6237188;23;20203;-82
2023/09/23 17:44:38;;;;;;;9.57;9.27;;;16.40;99.90;;;;;;6238272;23;20199;-83
2023/09/23 17:47:06;;;;;;;9.38;9.07;;;16.50;99.90;;;;;;6238322;23;20214;-82
2023/09/23 17:49:35;;;;;;;9.45;9.15;;;16.50;99.90;;;;;;6239034;22;20203;-81
2023/09/23 17:52:02;;;;;;;9.60;9.30;;;16.40;99.90;;;;;;6239492;23;20226;-82
2023/09/23 17:54:30;;;;;;;9.50;9.20;;;16.40;99.90;;;;;;6243737;23;20224;-81
2023/09/23 17:56:57;;;;;;;9.80;9.50;;;16.40;99.90;;;;;;6242436;23;20203;-82
2023/09/23 17:59:25;;;;;;;9.60;9.30;;;16.20;99.90;;;;;;6239077;22;20219;-82
2023/09/23 18:01:53;;;;;;;9.75;9.45;;;16.20;99.90;;;;;;6239192;23;20213;-83
2023/09/23 18:04:20;;;;;;;9.77;9.48;;;16.10;99.90;;;;;;6238270;23;20214;-82
2023/09/23 18:06:48;;;;;;;9.63;9.32;;;16.00;99.90;;;;;;6237066;23;20202;-81
2023/09/23 18:09:15;;;;;;;9.30;9.00;;;16.00;99.90;;;;;;6236515;22;20213;-82
2023/09/23 18:11:42;;;;;;;9.38;9.07;;;16.00;99.90;;;;;;6237169;23;20201;-81
2023/09/23 18:14:09;;;;;;;9.50;9.20;;;16.00;99.90;;;;;;6238214;23;20267;-81
2023/09/23 18:16:36;;;;;;;9.63;9.32;;;16.00;99.90;;;;;;6236916;23;20199;-81
2023/09/23 18:19:05;;;;;;;9.68;9.38;;;16.00;99.90;;;;;;6236378;22;20203;-81
2023/09/23 18:21:32;;;;;;;9.43;9.13;;;16.00;99.90;;;;;;6235408;23;20232;-82
2023/09/23 18:23:59;;;;;;;9.80;9.50;;;16.00;99.90;;;;;;6235346;23;20206;-81
2023/09/23 18:26:26;;;;;;;9.50;9.20;;;16.00;99.90;;;;;;6236130;23;20202;-81
2023/09/23 18:28:54;;;;;;;9.48;9.18;;;16.00;99.90;;;;;;6236987;22;20210;-83
2023/09/23 18:31:21;;;;;;;9.85;9.55;;;16.00;99.90;;;;;;6236615;23;20250;-83
2023/09/23 18:33:49;;;;;;;9.63;9.32;;;16.10;99.90;;;;;;6237188;23;20203;-82
2023/09/23 18:36:17;;;;;;;9.27;8.98;;;16.00;99.90;;;;;;6237175;23;20203;-82
2023/09/23 18:38:45;;;;;;;9.68;9.38;;;16.00;99.90;;;;;;6236582;22;20202;-81
2023/09/23 18:41:12;;;;;;;9.68;9.38;;;16.00;99.90;;;;;;6235915;23;20194;-82
2023/09/23 18:43:39;;;;;;;9.85;9.55;;;16.00;99.90;;;;;;6236449;23;20250;-81
2023/09/23 18:46:07;;;;;;;9.75;9.45;;;15.90;99.90;;;;;;6240103;23;20195;-82
2023/09/23 18:48:34;;;;;;;9.75;9.45;;;15.90;99.90;;;;;;6238702;23;20195;-82
2023/09/23 18:51:01;;;;;;;9.77;9.48;;;15.80;99.90;;;;;;6236527;23;20191;-82
2023/09/23 18:53:29;;;;;;;9.90;9.60;;;15.70;99.90;;;;;;6235935;23;20206;-82
2023/09/23 18:55:59;;;;;;;9.88;9.57;;;15.70;99.90;;;;;;6235709;23;20214;-81
2023/09/23 18:58:26;;;;;;;9.63;9.32;;;15.60;99.90;;;;;;6236047;22;20254;-82
2023/09/23 19:00:53;;;;;;;10.20;9.90;;;15.60;99.90;;;;;;6236833;23;20206;-83
2023/09/23 19:03:20;;;;;;;10.07;9.77;;;15.60;99.90;;;;;;6236312;23;20191;-81
2023/09/23 19:05:48;;;;;;;10.10;9.80;;;15.50;99.90;;;;;;6236494;23;20213;-82
2023/09/23 19:08:15;;;;;;;10.02;9.73;;;15.50;99.90;;;;;;6235725;23;20234;-82
2023/09/23 19:10:44;;;;;;;10.15;9.85;;;15.40;99.90;;;;;;6241670;22;20202;-82
2023/09/23 19:13:11;;;;;;;10.20;9.90;;;15.40;99.90;;;;;;6242674;23;20191;-81
2023/09/23 19:15:38;;;;;;;10.10;9.80;;;15.30;99.90;;;;;;6243558;23;20199;-82
2023/09/23 19:18:06;;;;;;;10.30;10.00;;;15.30;99.90;;;;;;6242823;23;20191;-82
2023/09/23 19:20:33;;;;;;;9.90;9.60;;;15.20;99.90;;;;;;6240984;23;20198;-80
2023/09/23 19:23:00;;;;;;;10.07;9.77;;;15.10;99.90;;;;;;6242303;23;20199;-83
2023/09/23 19:25:27;;;;;;;10.07;9.77;;;15.10;99.90;;;;;;6244211;23;20201;-82
2023/09/23 19:27:56;;;;;;;10.07;9.77;;;15.00;99.90;;;;;;6241731;23;20207;-82
2023/09/23 19:30:23;;;;;;;9.80;9.50;;;15.00;99.90;;;;;;6238411;22;20273;-82
2023/09/23 19:32:50;;;;;;;10.00;9.70;;;14.90;99.90;;;;;;6239556;23;20215;-82
2023/09/23 19:35:18;;;;;;;10.00;9.70;;;14.80;99.90;;;;;;6240689;23;20237;-83
2023/09/23 19:37:45;;;;;;;10.00;9.70;;;14.80;99.90;;;;;;6238191;23;20200;-82
2023/09/23 19:40:14;;;;;;;10.20;9.90;;;14.70;99.90;;;;;;6238388;22;20203;-82
2023/09/23 19:42:41;;;;;;;10.18;9.88;;;14.70;99.90;;;;;;6236064;23;20221;-82
2023/09/23 19:45:12;;;;;;;10.10;9.80;;;14.60;99.90;;;;;;6237177;23;20198;-81
2023/09/23 19:47:39;;;;;;;10.13;9.82;;;14.50;99.90;;;;;;6235408;23;20215;-82
2023/09/23 19:50:07;;;;;;;10.10;9.80;;;14.50;99.90;;;;;;6235863;22;20203;-82
2023/09/23 19:52:35;;;;;;;10.10;9.80;;;14.50;99.90;;;;;;6235591;23;20187;-81
2023/09/23 19:55:02;;;;;;;10.02;9.73;;;14.30;99.90;;;;;;6239970;23;20207;-82
2023/09/23 19:57:29;;;;;;;10.02;9.73;;;14.30;99.90;;;;;;6242126;23;20195;-82
